Time;durP1;ratioP1;P1;durP2;ratioP2;P2;SDS_P1;SDS_P2;PMS_P1;PMS_P2;Temp;Humidity;BMP_temperature;BMP_pressure;BME280_temperature;BME280_humidity;BME280_pressure;Samples;Min_cycle;Max_cycle;Signal;HPM_P1;HPM_P2
2021/05/22 08:14:45;;;;;;;2.37;0.70;;;14.10;99.90;;;15.44;100.00;99334.81;5002822;28;20321;-61
2021/05/22 08:46:30;;;;;;;3.05;0.75;;;16.10;93.20;;;17.19;100.00;99317.84;4879129;29;20226;-62
2021/05/22 10:58:36;;;;;;;3.47;0.93;;;18.80;48.30;;;18.30;100.00;99339.13;4854773;28;20231;-63
2021/05/22 17:05:42;;;;;;;2.93;1.03;;;12.90;99.90;;;14.95;100.00;99472.72;4872309;28;20622;-61
2021/05/22 17:08:09;;;;;;;1.77;0.90;;;13.00;99.90;;;15.06;100.00;99474.81;4966686;28;20746;-60
2021/05/22 17:10:37;;;;;;;4.13;0.73;;;13.10;99.90;;;15.11;100.00;99466.06;4985281;28;20333;-60
2021/05/22 17:13:04;;;;;;;5.67;1.00;;;13.20;99.90;;;15.09;100.00;99466.28;4985480;28;20258;-60
2021/05/22 17:15:31;;;;;;;1.77;0.97;;;13.30;99.90;;;15.16;100.00;99466.28;4983660;28;20597;-60
2021/05/22 17:17:58;;;;;;;1.73;0.60;;;13.40;99.90;;;15.16;100.00;99465.47;4985088;28;20457;-61
2021/05/22 17:20:25;;;;;;;1.87;0.90;;;13.40;99.90;;;15.16;100.00;99460.06;4980877;28;20408;-61
2021/05/22 17:22:52;;;;;;;3.27;0.83;;;13.50;99.90;;;15.43;100.00;99462.56;4979881;28;20234;-59
2021/05/22 17:25:19;;;;;;;1.23;0.73;;;13.50;99.90;;;15.68;100.00;99457.34;4984451;28;20701;-60
2021/05/22 17:27:48;;;;;;;2.27;0.60;;;13.60;99.90;;;15.76;100.00;99476.00;4982612;28;20622;-61
2021/05/22 17:30:19;;;;;;;2.03;0.97;;;13.60;99.90;;;16.13;100.00;99470.91;4984517;28;20621;-61
2021/05/22 17:32:46;;;;;;;4.93;0.90;;;13.70;99.90;;;16.15;100.00;99466.13;4985644;28;20230;-60
2021/05/22 17:35:15;;;;;;;1.73;1.20;;;13.90;99.90;;;16.13;100.00;99469.03;4981340;28;20317;-60
2021/05/22 17:37:42;;;;;;;4.50;2.20;;;14.00;99.90;;;16.22;100.00;99477.69;4980651;28;20727;-61
2021/05/22 17:40:12;;;;;;;3.33;2.00;;;14.10;99.90;;;16.32;100.00;99477.25;4983286;28;20226;-61
2021/05/22 17:42:41;;;;;;;0.97;0.80;;;14.20;99.90;;;16.31;100.00;99473.75;4984692;28;20455;-60
2021/05/22 17:45:14;;;;;;;0.77;0.57;;;14.40;99.90;;;16.37;100.00;99470.16;4982861;28;20322;-61
2021/05/22 17:47:41;;;;;;;2.37;0.67;;;14.40;99.20;;;16.29;100.00;99475.00;4984206;28;20273;-61
2021/05/22 17:50:10;;;;;;;1.30;0.60;;;14.50;97.80;;;16.33;100.00;99462.69;4984751;28;20560;-61
2021/05/22 17:52:37;;;;;;;1.90;0.70;;;14.60;97.80;;;16.34;100.00;99467.88;4983368;28;20317;-61
2021/05/22 17:55:14;;;;;;;1.77;0.60;;;14.60;96.80;;;16.46;100.00;99471.56;4993006;28;20699;-61
2021/05/22 17:57:42;;;;;;;2.13;0.53;;;14.60;96.40;;;16.32;100.00;99471.88;4977969;28;20226;-60
2021/05/22 18:00:13;;;;;;;3.83;0.77;;;14.70;95.60;;;16.29;100.00;99466.88;4995993;28;20528;-60
2021/05/22 18:02:41;;;;;;;3.63;1.00;;;14.70;94.50;;;16.29;100.00;99469.59;5004158;28;20284;-61
2021/05/22 18:05:13;;;;;;;2.20;0.60;;;14.70;94.60;;;16.38;100.00;99465.59;5004567;28;20991;-60
2021/05/22 18:07:39;;;;;;;0.70;0.50;;;14.70;94.90;;;16.37;100.00;99462.06;4992023;28;20227;-62
2021/05/22 18:10:07;;;;;;;2.50;0.70;;;14.80;94.50;;;16.28;100.00;99468.75;4987464;28;20337;-61
2021/05/22 18:12:34;;;;;;;2.20;0.73;;;14.80;94.60;;;16.20;100.00;99468.16;5007016;28;20737;-61
2021/05/22 18:15:01;;;;;;;2.97;0.90;;;14.80;94.60;;;16.16;100.00;99465.06;4987928;28;20860;-61
2021/05/22 18:17:27;;;;;;;2.60;0.60;;;14.80;94.20;;;15.99;100.00;99474.69;4986198;28;20236;-60
2021/05/22 18:19:54;;;;;;;0.70;0.50;;;14.80;93.90;;;16.00;100.00;99463.69;4988338;28;20219;-61
2021/05/22 18:22:21;;;;;;;3.07;0.80;;;14.80;93.40;;;15.86;100.00;99472.84;4989445;28;20754;-61
2021/05/22 18:24:47;;;;;;;1.10;0.60;;;14.70;93.50;;;15.74;100.00;99471.84;4986583;28;20565;-60
2021/05/22 18:27:14;;;;;;;1.02;0.50;;;14.70;93.90;;;15.61;100.00;99467.31;4982272;28;20332;-60
2021/05/22 18:29:49;;;;;;;1.53;0.73;;;14.60;93.90;;;15.52;100.00;99471.25;4990505;28;20309;-60
2021/05/22 18:32:17;;;;;;;1.87;0.90;;;14.60;94.30;;;15.35;100.00;99478.91;4991012;28;20581;-61
2021/05/22 18:34:44;;;;;;;4.37;0.90;;;14.50;94.70;;;15.18;100.00;99471.47;4991731;28;20408;-60
2021/05/22 18:37:10;;;;;;;2.03;0.80;;;14.50;94.70;;;15.20;100.00;99469.41;4972384;28;20700;-60
2021/05/22 18:39:37;;;;;;;2.70;1.30;;;14.40;94.80;;;15.20;100.00;99481.03;4990248;28;21233;-61
2021/05/22 18:42:04;;;;;;;2.07;1.10;;;14.30;94.90;;;15.01;100.00;99479.13;4991252;28;20609;-61
2021/05/22 18:44:31;;;;;;;3.10;0.80;;;14.30;95.10;;;15.08;100.00;99480.78;4990842;28;20971;-60
2021/05/22 18:46:57;;;;;;;2.33;0.80;;;14.20;95.10;;;15.11;100.00;99476.84;4989675;28;20597;-59
2021/05/22 18:49:25;;;;;;;2.43;0.70;;;14.10;94.90;;;14.99;100.00;99486.59;4998693;28;20237;-61
2021/05/22 18:51:51;;;;;;;3.03;0.73;;;14.10;95.20;;;14.94;100.00;99489.91;5005562;28;20234;-61
2021/05/22 18:54:17;;;;;;;1.10;0.67;;;14.00;95.30;;;15.01;100.00;99487.22;5006407;28;20333;-60
2021/05/22 18:56:44;;;;;;;3.97;1.40;;;13.90;95.30;;;14.92;100.00;99483.91;5010565;28;20281;-61
2021/05/22 18:59:10;;;;;;;2.37;1.13;;;13.90;95.40;;;14.87;100.00;99494.44;5009689;28;20705;-59
2021/05/22 19:01:37;;;;;;;3.13;0.93;;;13.80;95.60;;;14.84;100.00;99496.72;5010317;28;20631;-60
2021/05/22 19:04:04;;;;;;;2.60;1.27;;;13.80;95.80;;;14.70;100.00;99506.66;5009826;28;20273;-61
2021/05/22 19:06:32;;;;;;;5.07;1.37;;;13.70;96.10;;;14.72;100.00;99509.94;5011126;28;20680;-61
2021/05/22 19:08:58;;;;;;;2.90;1.17;;;13.70;96.30;;;14.77;100.00;99515.56;5010172;28;20542;-61
2021/05/22 19:11:25;;;;;;;3.47;2.10;;;13.60;96.30;;;14.72;100.00;99516.16;5007758;28;20231;-61
2021/05/22 19:13:51;;;;;;;2.67;0.90;;;13.60;96.20;;;14.72;100.00;99513.47;5008287;28;20310;-60
2021/05/22 19:16:18;;;;;;;4.90;1.33;;;13.60;96.10;;;14.62;100.00;99515.72;5007702;28;20350;-59
2021/05/22 19:18:44;;;;;;;3.63;1.20;;;13.60;96.00;;;14.65;100.00;99517.19;5010261;28;20540;-60
2021/05/22 19:21:11;;;;;;;6.07;1.47;;;13.50;95.80;;;14.72;100.00;99526.94;5009570;28;20230;-61
2021/05/22 19:23:38;;;;;;;2.60;1.60;;;13.50;95.20;;;14.60;100.00;99525.88;5010420;28;20446;-61
2021/05/22 19:26:04;;;;;;;2.80;1.50;;;13.50;95.30;;;14.58;100.00;99524.44;5009682;28;20591;-60
2021/05/22 19:28:31;;;;;;;3.63;1.30;;;13.50;95.10;;;14.60;100.00;99527.72;5009877;28;20406;-60
2021/05/22 19:30:57;;;;;;;2.60;1.10;;;13.50;94.50;;;14.66;100.00;99535.00;4997137;28;20390;-60
2021/05/22 19:33:24;;;;;;;4.10;1.50;;;13.40;93.90;;;14.57;100.00;99537.06;5007094;28;20581;-61
2021/05/22 19:35:50;;;;;;;2.13;1.10;;;13.40;94.00;;;14.52;100.00;99538.69;4996910;28;20521;-62
2021/05/22 19:38:17;;;;;;;2.40;1.50;;;13.40;93.90;;;14.52;100.00;99534.13;5004071;28;20225;-60
2021/05/22 19:40:45;;;;;;;5.83;2.70;;;13.40;93.60;;;14.50;100.00;99546.13;5009044;28;20301;-61
2021/05/22 19:43:11;;;;;;;3.03;1.07;;;13.40;93.40;;;14.64;100.00;99540.59;5002172;28;20458;-61
2021/05/22 19:45:38;;;;;;;3.93;1.63;;;13.40;93.10;;;14.62;100.00;99547.22;5003273;28;20623;-61
2021/05/22 19:48:05;;;;;;;3.07;1.00;;;13.40;92.90;;;14.58;100.00;99548.66;4996194;28;20694;-62
2021/05/22 19:50:37;;;;;;;1.80;0.90;;;13.40;92.70;;;14.57;100.00;99539.75;5001964;28;20401;-60
2021/05/22 19:53:03;;;;;;;2.70;1.80;;;13.40;92.60;;;14.62;100.00;99542.66;5006244;28;20697;-60
2021/05/22 19:55:31;;;;;;;4.60;1.70;;;13.40;92.40;;;14.61;100.00;99546.38;5020323;28;20709;-60
2021/05/22 19:57:59;;;;;;;4.20;1.80;;;13.40;92.40;;;14.56;100.00;99542.66;5007824;28;20229;-61
2021/05/22 20:00:28;;;;;;;13.23;4.83;;;13.40;92.10;;;14.55;100.00;99551.75;5003686;28;20312;-60
2021/05/22 20:02:56;;;;;;;6.67;3.40;;;13.50;92.10;;;14.54;100.00;99545.53;5007393;28;21037;-62
2021/05/22 20:05:23;;;;;;;7.83;3.97;;;13.50;92.10;;;14.59;100.00;99547.59;5008552;28;20528;-62
2021/05/22 20:07:51;;;;;;;4.20;2.23;;;13.50;91.70;;;14.52;100.00;99546.75;5007752;28;20516;-60
2021/05/22 20:10:19;;;;;;;8.40;4.20;;;13.50;91.50;;;14.52;100.00;99544.91;5007003;28;20287;-61
2021/05/22 20:12:46;;;;;;;5.97;3.97;;;13.50;91.60;;;14.55;100.00;99549.88;4992742;28;20471;-62
2021/05/22 20:15:16;;;;;;;4.20;2.13;;;13.50;91.20;;;14.52;100.00;99552.97;5007612;28;20597;-61
2021/05/22 20:17:44;;;;;;;5.77;2.00;;;13.50;91.20;;;14.44;100.00;99558.53;4998458;28;20227;-62
2021/05/22 20:20:18;;;;;;;4.33;1.60;;;13.50;91.50;;;14.41;100.00;99555.41;5009103;28;20299;-62
2021/05/22 20:22:45;;;;;;;2.27;1.20;;;13.50;91.60;;;14.40;100.00;99556.44;5004873;28;20602;-62
2021/05/22 20:25:14;;;;;;;2.17;1.20;;;13.50;91.60;;;14.45;100.00;99562.91;5003083;28;20253;-62
2021/05/22 20:27:41;;;;;;;4.87;1.33;;;13.50;91.70;;;14.30;100.00;99557.63;5007242;28;20766;-62
2021/05/22 20:30:12;;;;;;;4.50;1.40;;;13.40;91.90;;;14.37;100.00;99563.84;5008088;28;20613;-62
2021/05/22 20:32:40;;;;;;;3.07;1.17;;;13.40;91.90;;;14.31;100.00;99563.84;5007457;28;20633;-62
2021/05/22 20:35:10;;;;;;;1.90;1.10;;;13.40;92.10;;;14.28;100.00;99573.13;5009449;28;20219;-62
2021/05/22 20:37:36;;;;;;;3.57;1.77;;;13.30;92.10;;;14.25;100.00;99565.44;5008067;28;20416;-62
2021/05/22 20:40:05;;;;;;;3.30;1.70;;;13.30;92.30;;;14.19;100.00;99573.50;5007856;28;20460;-62
2021/05/22 20:42:31;;;;;;;2.43;1.30;;;13.30;92.50;;;14.19;100.00;99570.81;4998756;28;20242;-62
2021/05/22 20:44:58;;;;;;;2.20;1.20;;;13.30;92.60;;;14.15;100.00;99572.22;4992463;28;20275;-60
2021/05/22 20:47:24;;;;;;;1.07;0.60;;;13.20;92.60;;;14.15;100.00;99573.06;5008322;28;20230;-60
2021/05/22 20:49:52;;;;;;;2.67;0.97;;;13.20;92.70;;;14.10;100.00;99569.28;5008853;28;20418;-62
2021/05/22 20:52:18;;;;;;;2.77;0.60;;;13.20;92.80;;;14.10;100.00;99567.44;5007645;28;20253;-62
2021/05/22 20:54:46;;;;;;;1.17;0.70;;;13.20;92.90;;;14.21;100.00;99574.13;5002424;28;20541;-61
2021/05/22 20:57:14;;;;;;;3.63;1.10;;;13.10;92.80;;;14.23;100.00;99569.34;5008658;28;20537;-62
2021/05/22 20:59:41;;;;;;;1.10;0.93;;;13.20;92.80;;;14.22;100.00;99576.59;5008094;28;20229;-61
2021/05/22 21:02:10;;;;;;;2.37;0.87;;;13.10;92.80;;;14.22;100.00;99583.84;5007952;28;20502;-62
2021/05/22 21:04:37;;;;;;;4.13;1.40;;;13.20;92.80;;;14.19;100.00;99579.72;5008389;28;20563;-62
2021/05/22 21:07:05;;;;;;;2.67;1.20;;;13.20;92.90;;;14.24;100.00;99587.16;5006264;28;20218;-61
2021/05/22 21:09:31;;;;;;;2.40;0.83;;;13.20;92.70;;;14.21;100.00;99595.66;5007530;28;20544;-62
2021/05/22 21:11:58;;;;;;;2.80;1.13;;;13.20;92.70;;;14.16;100.00;99588.19;5006212;28;20609;-61
2021/05/22 21:14:24;;;;;;;3.63;0.87;;;13.20;92.90;;;14.10;100.00;99597.03;4989309;28;20601;-61
2021/05/22 21:57:38;;;;;;;2.70;0.93;;;12.90;96.40;;;14.03;100.00;99674.16;4994387;28;20242;-61
